sensor_id;sensor_type;location;lat;lon;timestamp;temperature;humidity
41722;DHT22;27407;24.142;-110.310;2024-03-07T00:00:18;32.10;84.50
41722;DHT22;27407;24.142;-110.310;2024-03-07T00:02:48;32.00;85.70
41722;DHT22;27407;24.142;-110.310;2024-03-07T00:05:22;31.60;86.20
41722;DHT22;27407;24.142;-110.310;2024-03-07T00:07:55;31.00;89.10
41722;DHT22;27407;24.142;-110.310;2024-03-07T00:10:24;30.50;90.80
41722;DHT22;27407;24.142;-110.310;2024-03-07T00:12:50;30.30;91.60
41722;DHT22;27407;24.142;-110.310;2024-03-07T00:15:17;30.10;92.40
41722;DHT22;27407;24.142;-110.310;2024-03-07T00:17:44;30.00;93.40
41722;DHT22;27407;24.142;-110.310;2024-03-07T00:20:11;29.60;94.20
41722;DHT22;27407;24.142;-110.310;2024-03-07T00:22:43;29.40;95.00
41722;DHT22;27407;24.142;-110.310;2024-03-07T00:25:10;29.50;95.30
41722;DHT22;27407;24.142;-110.310;2024-03-07T00:27:38;29.50;95.90
41722;DHT22;27407;24.142;-110.310;2024-03-07T00:30:06;29.60;95.70
41722;DHT22;27407;24.142;-110.310;2024-03-07T00:32:35;29.60;96.10
41722;DHT22;27407;24.142;-110.310;2024-03-07T00:35:08;29.30;96.50
41722;DHT22;27407;24.142;-110.310;2024-03-07T00:37:35;29.10;96.70
41722;DHT22;27407;24.142;-110.310;2024-03-07T00:40:02;28.90;96.90
41722;DHT22;27407;24.142;-110.310;2024-03-07T00:42:29;28.50;97.20
41722;DHT22;27407;24.142;-110.310;2024-03-07T00:44:56;29.10;96.60
41722;DHT22;27407;24.142;-110.310;2024-03-07T00:47:23;29.80;95.90
41722;DHT22;27407;24.142;-110.310;2024-03-07T00:49:50;29.70;95.90
41722;DHT22;27407;24.142;-110.310;2024-03-07T00:52:16;30.10;95.90
41722;DHT22;27407;24.142;-110.310;2024-03-07T00:54:43;30.20;95.90
41722;DHT22;27407;24.142;-110.310;2024-03-07T00:57:10;29.90;96.30
41722;DHT22;27407;24.142;-110.310;2024-03-07T00:59:36;29.60;96.50
41722;DHT22;27407;24.142;-110.310;2024-03-07T01:02:03;29.20;97.20
41722;DHT22;27407;24.142;-110.310;2024-03-07T01:04:30;28.60;97.70
41722;DHT22;27407;24.142;-110.310;2024-03-07T01:06:59;28.20;98.30
41722;DHT22;27407;24.142;-110.310;2024-03-07T01:09:26;27.90;99.00
41722;DHT22;27407;24.142;-110.310;2024-03-07T01:11:56;27.90;99.40
41722;DHT22;27407;24.142;-110.310;2024-03-07T01:14:23;27.40;99.90
41722;DHT22;27407;24.142;-110.310;2024-03-07T01:16:49;27.10;99.90
41722;DHT22;27407;24.142;-110.310;2024-03-07T01:19:16;26.70;99.90
41722;DHT22;27407;24.142;-110.310;2024-03-07T01:21:43;26.30;99.90
41722;DHT22;27407;24.142;-110.310;2024-03-07T01:24:09;26.50;99.90
41722;DHT22;27407;24.142;-110.310;2024-03-07T01:26:36;26.30;99.90
41722;DHT22;27407;24.142;-110.310;2024-03-07T01:29:03;26.20;99.90
41722;DHT22;27407;24.142;-110.310;2024-03-07T01:31:30;26.20;99.90
41722;DHT22;27407;24.142;-110.310;2024-03-07T01:33:57;26.10;99.90
41722;DHT22;27407;24.142;-110.310;2024-03-07T01:36:23;26.00;99.90
41722;DHT22;27407;24.142;-110.310;2024-03-07T01:38:50;25.80;99.90
41722;DHT22;27407;24.142;-110.310;2024-03-07T01:41:17;25.90;99.90
41722;DHT22;27407;24.142;-110.310;2024-03-07T01:43:44;25.80;99.90
41722;DHT22;27407;24.142;-110.310;2024-03-07T01:46:11;25.60;99.90
41722;DHT22;27407;24.142;-110.310;2024-03-07T01:48:39;25.50;99.90
41722;DHT22;27407;24.142;-110.310;2024-03-07T01:51:07;25.40;99.90
41722;DHT22;27407;24.142;-110.310;2024-03-07T01:53:34;25.20;99.90
41722;DHT22;27407;24.142;-110.310;2024-03-07T01:56:02;25.20;99.90
41722;DHT22;27407;24.142;-110.310;2024-03-07T01:58:30;25.20;99.90
41722;DHT22;27407;24.142;-110.310;2024-03-07T02:00:58;25.20;99.90
41722;DHT22;27407;24.142;-110.310;2024-03-07T02:03:26;25.30;99.90
41722;DHT22;27407;24.142;-110.310;2024-03-07T02:05:52;25.10;99.90
41722;DHT22;27407;24.142;-110.310;2024-03-07T02:08:19;25.00;99.90
41722;DHT22;27407;24.142;-110.310;2024-03-07T02:10:46;24.90;99.90
41722;DHT22;27407;24.142;-110.310;2024-03-07T02:13:12;24.80;99.90
41722;DHT22;27407;24.142;-110.310;2024-03-07T02:15:39;24.70;99.90
41722;DHT22;27407;24.142;-110.310;2024-03-07T02:18:08;24.60;99.90
41722;DHT22;27407;24.142;-110.310;2024-03-07T02:20:35;24.50;99.90
41722;DHT22;27407;24.142;-110.310;2024-03-07T02:23:02;24.60;99.90
41722;DHT22;27407;24.142;-110.310;2024-03-07T02:25:30;24.50;99.90
41722;DHT22;27407;24.142;-110.310;2024-03-07T02:27:58;24.50;99.90
41722;DHT22;27407;24.142;-110.310;2024-03-07T02:30:24;24.40;99.90
41722;DHT22;27407;24.142;-110.310;2024-03-07T02:32:51;24.20;99.90
41722;DHT22;27407;24.142;-110.310;2024-03-07T02:35:20;24.20;99.90
41722;DHT22;27407;24.142;-110.310;2024-03-07T02:37:47;24.20;99.90
41722;DHT22;27407;24.142;-110.310;2024-03-07T02:40:14;24.30;99.90
41722;DHT22;27407;24.142;-110.310;2024-03-07T02:42:43;24.20;99.90
41722;DHT22;27407;24.142;-110.310;2024-03-07T02:45:09;24.00;99.90
41722;DHT22;27407;24.142;-110.310;2024-03-07T02:47:40;24.00;99.90
41722;DHT22;27407;24.142;-110.310;2024-03-07T02:50:08;23.80;99.90
41722;DHT22;27407;24.142;-110.310;2024-03-07T02:52:35;23.80;99.90
41722;DHT22;27407;24.142;-110.310;2024-03-07T02:55:02;23.80;99.90
41722;DHT22;27407;24.142;-110.310;2024-03-07T02:57:32;23.70;99.90
41722;DHT22;27407;24.142;-110.310;2024-03-07T02:59:58;23.80;99.90
41722;DHT22;27407;24.142;-110.310;2024-03-07T03:02:25;23.60;99.90
41722;DHT22;27407;24.142;-110.310;2024-03-07T03:04:51;23.60;99.90
41722;DHT22;27407;24.142;-110.310;2024-03-07T03:07:18;23.50;99.90
41722;DHT22;27407;24.142;-110.310;2024-03-07T03:09:45;23.50;99.90
41722;DHT22;27407;24.142;-110.310;2024-03-07T03:12:12;23.40;99.90
41722;DHT22;27407;24.142;-110.310;2024-03-07T03:14:38;23.30;99.90
41722;DHT22;27407;24.142;-110.310;2024-03-07T03:17:05;23.30;99.90
41722;DHT22;27407;24.142;-110.310;2024-03-07T03:19:35;23.20;99.90
41722;DHT22;27407;24.142;-110.310;2024-03-07T03:22:02;23.30;99.90
41722;DHT22;27407;24.142;-110.310;2024-03-07T03:24:29;23.10;99.90
41722;DHT22;27407;24.142;-110.310;2024-03-07T03:26:56;23.10;99.90
41722;DHT22;27407;24.142;-110.310;2024-03-07T03:29:23;22.90;99.90
41722;DHT22;27407;24.142;-110.310;2024-03-07T03:31:49;22.90;99.90
41722;DHT22;27407;24.142;-110.310;2024-03-07T03:34:16;22.90;99.90
41722;DHT22;27407;24.142;-110.310;2024-03-07T03:36:43;22.80;99.90
41722;DHT22;27407;24.142;-110.310;2024-03-07T03:39:09;22.80;99.90
41722;DHT22;27407;24.142;-110.310;2024-03-07T03:41:39;22.70;99.90
41722;DHT22;27407;24.142;-110.310;2024-03-07T03:44:06;22.70;99.90
41722;DHT22;27407;24.142;-110.310;2024-03-07T03:46:32;22.60;99.90
41722;DHT22;27407;24.142;-110.310;2024-03-07T03:48:59;22.60;99.90
41722;DHT22;27407;24.142;-110.310;2024-03-07T03:51:26;22.50;99.90
41722;DHT22;27407;24.142;-110.310;2024-03-07T03:53:52;22.50;99.90
41722;DHT22;27407;24.142;-110.310;2024-03-07T03:56:19;22.50;99.90
41722;DHT22;27407;24.142;-110.310;2024-03-07T03:58:46;22.40;99.90
41722;DHT22;27407;24.142;-110.310;2024-03-07T04:01:13;22.40;99.90
41722;DHT22;27407;24.142;-110.310;2024-03-07T04:03:40;22.30;99.90
41722;DHT22;27407;24.142;-110.310;2024-03-07T04:06:07;22.40;99.90
41722;DHT22;27407;24.142;-110.310;2024-03-07T04:08:34;22.30;99.90
41722;DHT22;27407;24.142;-110.310;2024-03-07T04:11:02;22.30;99.90
41722;DHT22;27407;24.142;-110.310;2024-03-07T04:13:29;22.20;99.90
41722;DHT22;27407;24.142;-110.310;2024-03-07T04:15:57;22.20;99.90
41722;DHT22;27407;24.142;-110.310;2024-03-07T04:18:25;22.10;99.90
41722;DHT22;27407;24.142;-110.310;2024-03-07T04:20:52;22.10;99.90
41722;DHT22;27407;24.142;-110.310;2024-03-07T04:23:20;22.00;99.90
41722;DHT22;27407;24.142;-110.310;2024-03-07T04:25:46;22.00;99.90
41722;DHT22;27407;24.142;-110.310;2024-03-07T04:28:13;22.10;99.90
41722;DHT22;27407;24.142;-110.310;2024-03-07T04:30:39;22.10;99.90
41722;DHT22;27407;24.142;-110.310;2024-03-07T04:33:06;22.10;99.90
41722;DHT22;27407;24.142;-110.310;2024-03-07T04:35:32;22.10;99.90
41722;DHT22;27407;24.142;-110.310;2024-03-07T04:37:59;22.00;99.90
41722;DHT22;27407;24.142;-110.310;2024-03-07T04:40:26;22.10;99.90
41722;DHT22;27407;24.142;-110.310;2024-03-07T04:42:53;22.00;99.90
41722;DHT22;27407;24.142;-110.310;2024-03-07T04:45:19;21.90;99.90
41722;DHT22;27407;24.142;-110.310;2024-03-07T04:47:47;21.90;99.90
41722;DHT22;27407;24.142;-110.310;2024-03-07T04:50:15;21.90;99.90
41722;DHT22;27407;24.142;-110.310;2024-03-07T04:52:43;21.80;99.90
41722;DHT22;27407;24.142;-110.310;2024-03-07T04:55:10;21.60;99.90
41722;DHT22;27407;24.142;-110.310;2024-03-07T04:57:40;21.60;99.90
41722;DHT22;27407;24.142;-110.310;2024-03-07T05:00:08;21.50;99.90
41722;DHT22;27407;24.142;-110.310;2024-03-07T05:02:43;21.50;99.90
41722;DHT22;27407;24.142;-110.310;2024-03-07T05:05:10;21.50;99.90
41722;DHT22;27407;24.142;-110.310;2024-03-07T05:07:36;21.50;99.90
41722;DHT22;27407;24.142;-110.310;2024-03-07T05:10:04;21.60;99.90
41722;DHT22;27407;24.142;-110.310;2024-03-07T05:12:31;21.60;99.90
41722;DHT22;27407;24.142;-110.310;2024-03-07T05:14:58;21.70;99.90
41722;DHT22;27407;24.142;-110.310;2024-03-07T05:17:25;21.50;99.90
41722;DHT22;27407;24.142;-110.310;2024-03-07T05:19:52;21.50;99.90
41722;DHT22;27407;24.142;-110.310;2024-03-07T05:22:18;21.50;99.90
41722;DHT22;27407;24.142;-110.310;2024-03-07T05:24:48;21.50;99.90
41722;DHT22;27407;24.142;-110.310;2024-03-07T05:27:16;21.40;99.90
41722;DHT22;27407;24.142;-110.310;2024-03-07T05:29:42;21.50;99.90
41722;DHT22;27407;24.142;-110.310;2024-03-07T05:32:41;21.40;99.90
41722;DHT22;27407;24.142;-110.310;2024-03-07T05:35:08;21.40;99.90
41722;DHT22;27407;24.142;-110.310;2024-03-07T05:37:37;21.30;99.90
41722;DHT22;27407;24.142;-110.310;2024-03-07T05:40:08;21.50;99.90
41722;DHT22;27407;24.142;-110.310;2024-03-07T05:42:35;21.30;99.90
41722;DHT22;27407;24.142;-110.310;2024-03-07T05:45:01;21.30;99.90
41722;DHT22;27407;24.142;-110.310;2024-03-07T05:47:28;21.10;99.90
41722;DHT22;27407;24.142;-110.310;2024-03-07T05:49:55;21.10;99.90
41722;DHT22;27407;24.142;-110.310;2024-03-07T05:52:21;21.20;99.90
41722;DHT22;27407;24.142;-110.310;2024-03-07T05:54:48;21.00;99.90
41722;DHT22;27407;24.142;-110.310;2024-03-07T05:57:14;21.10;99.90
41722;DHT22;27407;24.142;-110.310;2024-03-07T05:59:41;21.20;99.90
41722;DHT22;27407;24.142;-110.310;2024-03-07T06:02:08;21.10;99.90
41722;DHT22;27407;24.142;-110.310;2024-03-07T06:04:34;20.90;99.90
41722;DHT22;27407;24.142;-110.310;2024-03-07T06:07:01;21.10;99.90
41722;DHT22;27407;24.142;-110.310;2024-03-07T06:09:27;21.00;99.90
41722;DHT22;27407;24.142;-110.310;2024-03-07T06:11:54;20.80;99.90
41722;DHT22;27407;24.142;-110.310;2024-03-07T06:14:21;20.80;99.90
41722;DHT22;27407;24.142;-110.310;2024-03-07T06:16:49;20.90;99.90
41722;DHT22;27407;24.142;-110.310;2024-03-07T06:19:15;20.70;99.90
41722;DHT22;27407;24.142;-110.310;2024-03-07T06:21:42;20.80;99.90
41722;DHT22;27407;24.142;-110.310;2024-03-07T06:24:09;20.80;99.90
41722;DHT22;27407;24.142;-110.310;2024-03-07T06:26:38;20.80;99.90
41722;DHT22;27407;24.142;-110.310;2024-03-07T06:29:15;20.90;99.90
41722;DHT22;27407;24.142;-110.310;2024-03-07T06:31:45;20.90;99.90
41722;DHT22;27407;24.142;-110.310;2024-03-07T06:34:16;20.90;99.90
41722;DHT22;27407;24.142;-110.310;2024-03-07T06:36:43;20.70;99.90
41722;DHT22;27407;24.142;-110.310;2024-03-07T06:39:10;20.70;99.90
41722;DHT22;27407;24.142;-110.310;2024-03-07T06:41:37;20.80;99.90
41722;DHT22;27407;24.142;-110.310;2024-03-07T06:44:04;20.70;99.90
41722;DHT22;27407;24.142;-110.310;2024-03-07T06:46:31;20.80;99.90
41722;DHT22;27407;24.142;-110.310;2024-03-07T06:48:59;20.70;99.90
41722;DHT22;27407;24.142;-110.310;2024-03-07T06:51:26;20.70;99.90
41722;DHT22;27407;24.142;-110.310;2024-03-07T06:53:52;20.70;99.90
41722;DHT22;27407;24.142;-110.310;2024-03-07T06:56:20;20.80;99.90
41722;DHT22;27407;24.142;-110.310;2024-03-07T06:58:47;20.70;99.90
41722;DHT22;27407;24.142;-110.310;2024-03-07T07:01:14;20.70;99.90
41722;DHT22;27407;24.142;-110.310;2024-03-07T07:03:45;20.70;99.90
41722;DHT22;27407;24.142;-110.310;2024-03-07T07:06:13;20.70;99.90
41722;DHT22;27407;24.142;-110.310;2024-03-07T07:08:40;20.70;99.90
41722;DHT22;27407;24.142;-110.310;2024-03-07T07:11:06;20.50;99.90
41722;DHT22;27407;24.142;-110.310;2024-03-07T07:13:33;20.50;99.90
41722;DHT22;27407;24.142;-110.310;2024-03-07T07:15:59;20.30;99.90
41722;DHT22;27407;24.142;-110.310;2024-03-07T07:18:27;20.30;99.90
41722;DHT22;27407;24.142;-110.310;2024-03-07T07:20:53;20.30;99.90
41722;DHT22;27407;24.142;-110.310;2024-03-07T07:23:20;20.30;99.90
41722;DHT22;27407;24.142;-110.310;2024-03-07T07:25:47;20.20;99.90
41722;DHT22;27407;24.142;-110.310;2024-03-07T07:28:13;20.40;99.90
41722;DHT22;27407;24.142;-110.310;2024-03-07T07:30:41;20.20;99.90
41722;DHT22;27407;24.142;-110.310;2024-03-07T07:33:08;20.20;99.90
41722;DHT22;27407;24.142;-110.310;2024-03-07T07:35:35;20.20;99.90
41722;DHT22;27407;24.142;-110.310;2024-03-07T07:38:01;20.00;99.90
41722;DHT22;27407;24.142;-110.310;2024-03-07T07:40:28;19.90;99.90
41722;DHT22;27407;24.142;-110.310;2024-03-07T07:42:57;20.00;99.90
41722;DHT22;27407;24.142;-110.310;2024-03-07T07:45:24;20.00;99.90
41722;DHT22;27407;24.142;-110.310;2024-03-07T07:47:53;19.80;99.90
41722;DHT22;27407;24.142;-110.310;2024-03-07T07:50:22;19.80;99.90
41722;DHT22;27407;24.142;-110.310;2024-03-07T07:52:50;19.80;99.90
41722;DHT22;27407;24.142;-110.310;2024-03-07T07:55:43;19.80;99.90
41722;DHT22;27407;24.142;-110.310;2024-03-07T07:58:09;19.70;99.90
41722;DHT22;27407;24.142;-110.310;2024-03-07T08:00:36;19.70;99.90
41722;DHT22;27407;24.142;-110.310;2024-03-07T08:03:05;19.60;99.90
41722;DHT22;27407;24.142;-110.310;2024-03-07T08:05:36;19.50;99.90
41722;DHT22;27407;24.142;-110.310;2024-03-07T08:08:05;19.60;99.90
41722;DHT22;27407;24.142;-110.310;2024-03-07T08:10:34;19.60;99.90
41722;DHT22;27407;24.142;-110.310;2024-03-07T08:13:01;19.50;99.90
41722;DHT22;27407;24.142;-110.310;2024-03-07T08:15:30;19.50;99.90
41722;DHT22;27407;24.142;-110.310;2024-03-07T08:17:58;19.50;99.90
41722;DHT22;27407;24.142;-110.310;2024-03-07T08:20:26;19.40;99.90
41722;DHT22;27407;24.142;-110.310;2024-03-07T08:22:54;19.40;99.90
41722;DHT22;27407;24.142;-110.310;2024-03-07T08:25:23;19.30;99.90
41722;DHT22;27407;24.142;-110.310;2024-03-07T08:27:51;19.30;99.90
41722;DHT22;27407;24.142;-110.310;2024-03-07T08:30:18;19.20;99.90
41722;DHT22;27407;24.142;-110.310;2024-03-07T08:32:49;19.30;99.90
41722;DHT22;27407;24.142;-110.310;2024-03-07T08:35:17;19.30;99.90
41722;DHT22;27407;24.142;-110.310;2024-03-07T08:37:48;19.30;99.90
41722;DHT22;27407;24.142;-110.310;2024-03-07T08:40:26;19.30;99.90
41722;DHT22;27407;24.142;-110.310;2024-03-07T08:42:57;19.30;99.90
41722;DHT22;27407;24.142;-110.310;2024-03-07T08:45:27;19.20;99.90
41722;DHT22;27407;24.142;-110.310;2024-03-07T08:47:55;19.30;99.90
41722;DHT22;27407;24.142;-110.310;2024-03-07T08:50:23;19.30;99.90
41722;DHT22;27407;24.142;-110.310;2024-03-07T08:52:50;19.20;99.90
41722;DHT22;27407;24.142;-110.310;2024-03-07T08:55:21;19.30;99.90
41722;DHT22;27407;24.142;-110.310;2024-03-07T08:57:48;19.10;99.90
41722;DHT22;27407;24.142;-110.310;2024-03-07T09:00:17;19.10;99.90
41722;DHT22;27407;24.142;-110.310;2024-03-07T09:02:54;19.00;99.90
41722;DHT22;27407;24.142;-110.310;2024-03-07T09:05:24;19.00;99.90
41722;DHT22;27407;24.142;-110.310;2024-03-07T09:07:54;19.10;99.90
41722;DHT22;27407;24.142;-110.310;2024-03-07T09:10:21;19.10;99.90
41722;DHT22;27407;24.142;-110.310;2024-03-07T09:12:51;19.00;99.90
41722;DHT22;27407;24.142;-110.310;2024-03-07T09:15:18;18.90;99.90
41722;DHT22;27407;24.142;-110.310;2024-03-07T09:34:20;19.10;99.90
41722;DHT22;27407;24.142;-110.310;2024-03-07T09:36:47;19.00;99.90
41722;DHT22;27407;24.142;-110.310;2024-03-07T09:39:15;18.90;99.90
41722;DHT22;27407;24.142;-110.310;2024-03-07T09:41:42;18.90;99.90
41722;DHT22;27407;24.142;-110.310;2024-03-07T09:44:10;18.90;99.90
41722;DHT22;27407;24.142;-110.310;2024-03-07T09:46:39;19.00;99.90
41722;DHT22;27407;24.142;-110.310;2024-03-07T09:49:07;19.00;99.90
41722;DHT22;27407;24.142;-110.310;2024-03-07T09:51:35;19.00;99.90
41722;DHT22;27407;24.142;-110.310;2024-03-07T09:54:03;19.00;99.90
41722;DHT22;27407;24.142;-110.310;2024-03-07T09:56:31;19.10;99.90
41722;DHT22;27407;24.142;-110.310;2024-03-07T09:59:04;19.10;99.90
41722;DHT22;27407;24.142;-110.310;2024-03-07T10:01:34;19.00;99.90
41722;DHT22;27407;24.142;-110.310;2024-03-07T10:04:02;19.20;99.90
41722;DHT22;27407;24.142;-110.310;2024-03-07T10:06:38;19.10;99.90
41722;DHT22;27407;24.142;-110.310;2024-03-07T10:09:07;19.00;99.90
41722;DHT22;27407;24.142;-110.310;2024-03-07T10:11:34;19.10;99.90
41722;DHT22;27407;24.142;-110.310;2024-03-07T10:14:01;19.10;99.90
41722;DHT22;27407;24.142;-110.310;2024-03-07T10:16:31;19.10;99.90
41722;DHT22;27407;24.142;-110.310;2024-03-07T10:18:58;19.10;99.90
41722;DHT22;27407;24.142;-110.310;2024-03-07T10:21:27;19.00;99.90
41722;DHT22;27407;24.142;-110.310;2024-03-07T10:24:07;19.10;99.90
41722;DHT22;27407;24.142;-110.310;2024-03-07T10:26:40;19.00;99.90
41722;DHT22;27407;24.142;-110.310;2024-03-07T10:29:07;19.00;99.90
41722;DHT22;27407;24.142;-110.310;2024-03-07T10:31:35;18.80;99.90
41722;DHT22;27407;24.142;-110.310;2024-03-07T10:34:05;18.60;99.90
41722;DHT22;27407;24.142;-110.310;2024-03-07T10:36:37;18.60;99.90
41722;DHT22;27407;24.142;-110.310;2024-03-07T10:39:08;18.60;99.90
41722;DHT22;27407;24.142;-110.310;2024-03-07T10:41:50;18.60;99.90
41722;DHT22;27407;24.142;-110.310;2024-03-07T10:44:24;18.60;99.90
41722;DHT22;27407;24.142;-110.310;2024-03-07T10:46:58;18.60;99.90
41722;DHT22;27407;24.142;-110.310;2024-03-07T10:49:33;18.70;99.90
41722;DHT22;27407;24.142;-110.310;2024-03-07T10:52:10;18.60;99.90
41722;DHT22;27407;24.142;-110.310;2024-03-07T10:54:59;18.50;99.90
41722;DHT22;27407;24.142;-110.310;2024-03-07T10:57:50;18.40;99.90
41722;DHT22;27407;24.142;-110.310;2024-03-07T11:00:27;18.20;99.90
41722;DHT22;27407;24.142;-110.310;2024-03-07T11:03:10;18.20;99.90
41722;DHT22;27407;24.142;-110.310;2024-03-07T11:05:37;18.00;99.90
41722;DHT22;27407;24.142;-110.310;2024-03-07T11:08:05;18.10;99.90
41722;DHT22;27407;24.142;-110.310;2024-03-07T11:10:49;18.20;99.90
41722;DHT22;27407;24.142;-110.310;2024-03-07T11:13:16;18.00;99.90
41722;DHT22;27407;24.142;-110.310;2024-03-07T11:15:55;17.90;99.90
41722;DHT22;27407;24.142;-110.310;2024-03-07T11:18:24;17.80;99.90
41722;DHT22;27407;24.142;-110.310;2024-03-07T11:20:50;18.00;99.90
41722;DHT22;27407;24.142;-110.310;2024-03-07T11:23:33;17.90;99.90
41722;DHT22;27407;24.142;-110.310;2024-03-07T11:26:19;17.80;99.90
41722;DHT22;27407;24.142;-110.310;2024-03-07T11:28:51;17.80;99.90
41722;DHT22;27407;24.142;-110.310;2024-03-07T11:31:27;17.90;99.90
41722;DHT22;27407;24.142;-110.310;2024-03-07T11:34:15;17.80;99.90
41722;DHT22;27407;24.142;-110.310;2024-03-07T11:36:46;17.90;99.90
41722;DHT22;27407;24.142;-110.310;2024-03-07T11:39:49;18.00;99.90
41722;DHT22;27407;24.142;-110.310;2024-03-07T11:42:29;18.00;99.90
41722;DHT22;27407;24.142;-110.310;2024-03-07T11:44:58;17.90;99.90
41722;DHT22;27407;24.142;-110.310;2024-03-07T11:47:26;17.80;99.90
41722;DHT22;27407;24.142;-110.310;2024-03-07T11:49:55;17.80;99.90
41722;DHT22;27407;24.142;-110.310;2024-03-07T11:52:24;17.70;99.90
41722;DHT22;27407;24.142;-110.310;2024-03-07T11:54:54;17.80;99.90
41722;DHT22;27407;24.142;-110.310;2024-03-07T11:57:29;17.70;99.90
41722;DHT22;27407;24.142;-110.310;2024-03-07T11:59:59;17.70;99.90
41722;DHT22;27407;24.142;-110.310;2024-03-07T12:02:38;17.80;99.90
41722;DHT22;27407;24.142;-110.310;2024-03-07T12:05:05;17.70;99.90
41722;DHT22;27407;24.142;-110.310;2024-03-07T12:07:33;17.60;99.90
41722;DHT22;27407;24.142;-110.310;2024-03-07T12:10:03;17.50;99.90
41722;DHT22;27407;24.142;-110.310;2024-03-07T12:12:31;17.50;99.90
41722;DHT22;27407;24.142;-110.310;2024-03-07T12:14:59;17.40;99.90
41722;DHT22;27407;24.142;-110.310;2024-03-07T12:17:26;17.50;99.90
41722;DHT22;27407;24.142;-110.310;2024-03-07T12:19:53;17.50;99.90
41722;DHT22;27407;24.142;-110.310;2024-03-07T12:22:22;17.50;99.90
41722;DHT22;27407;24.142;-110.310;2024-03-07T12:25:00;17.40;99.90
41722;DHT22;27407;24.142;-110.310;2024-03-07T12:27:28;17.40;99.90
41722;DHT22;27407;24.142;-110.310;2024-03-07T12:29:55;17.40;99.90
41722;DHT22;27407;24.142;-110.310;2024-03-07T12:32:23;17.40;99.90
41722;DHT22;27407;24.142;-110.310;2024-03-07T12:34:51;17.40;99.90
41722;DHT22;27407;24.142;-110.310;2024-03-07T12:37:19;17.40;99.90
41722;DHT22;27407;24.142;-110.310;2024-03-07T12:39:52;17.30;99.90
41722;DHT22;27407;24.142;-110.310;2024-03-07T12:42:28;17.30;99.90
41722;DHT22;27407;24.142;-110.310;2024-03-07T12:44:57;17.30;99.90
41722;DHT22;27407;24.142;-110.310;2024-03-07T12:47:25;17.30;99.90
41722;DHT22;27407;24.142;-110.310;2024-03-07T12:49:52;17.30;99.90
41722;DHT22;27407;24.142;-110.310;2024-03-07T12:52:18;17.20;99.90
41722;DHT22;27407;24.142;-110.310;2024-03-07T12:54:45;17.20;99.90
41722;DHT22;27407;24.142;-110.310;2024-03-07T12:57:14;17.20;99.90
41722;DHT22;27407;24.142;-110.310;2024-03-07T12:59:41;17.10;99.90
41722;DHT22;27407;24.142;-110.310;2024-03-07T13:02:08;17.00;99.90
41722;DHT22;27407;24.142;-110.310;2024-03-07T13:04:35;17.00;99.90
41722;DHT22;27407;24.142;-110.310;2024-03-07T13:07:05;17.00;99.90
41722;DHT22;27407;24.142;-110.310;2024-03-07T13:09:33;17.00;99.90
41722;DHT22;27407;24.142;-110.310;2024-03-07T13:12:01;17.00;99.90
41722;DHT22;27407;24.142;-110.310;2024-03-07T13:14:30;17.00;99.90
41722;DHT22;27407;24.142;-110.310;2024-03-07T13:17:01;16.90;99.90
41722;DHT22;27407;24.142;-110.310;2024-03-07T13:19:29;16.80;99.90
41722;DHT22;27407;24.142;-110.310;2024-03-07T13:21:56;16.70;99.90
41722;DHT22;27407;24.142;-110.310;2024-03-07T13:24:23;16.60;99.90
41722;DHT22;27407;24.142;-110.310;2024-03-07T13:26:50;16.50;99.90
41722;DHT22;27407;24.142;-110.310;2024-03-07T13:29:17;16.30;99.90
41722;DHT22;27407;24.142;-110.310;2024-03-07T13:31:51;16.20;99.90
41722;DHT22;27407;24.142;-110.310;2024-03-07T13:34:18;16.20;99.90
41722;DHT22;27407;24.142;-110.310;2024-03-07T13:36:45;16.30;99.90
41722;DHT22;27407;24.142;-110.310;2024-03-07T13:39:13;16.30;99.90
41722;DHT22;27407;24.142;-110.310;2024-03-07T13:41:43;16.30;99.90
41722;DHT22;27407;24.142;-110.310;2024-03-07T13:44:14;16.40;99.90
41722;DHT22;27407;24.142;-110.310;2024-03-07T13:46:41;16.30;99.90
41722;DHT22;27407;24.142;-110.310;2024-03-07T13:49:08;16.20;99.90
41722;DHT22;27407;24.142;-110.310;2024-03-07T13:51:41;16.10;99.90
41722;DHT22;27407;24.142;-110.310;2024-03-07T13:54:25;16.20;99.90
41722;DHT22;27407;24.142;-110.310;2024-03-07T14:11:37;16.40;99.90
41722;DHT22;27407;24.142;-110.310;2024-03-07T14:26:33;16.70;99.90
41722;DHT22;27407;24.142;-110.310;2024-03-07T14:31:39;16.80;99.90
41722;DHT22;27407;24.142;-110.310;2024-03-07T14:37:45;16.90;99.90
41722;DHT22;27407;24.142;-110.310;2024-03-07T14:40:10;17.00;99.90
41722;DHT22;27407;24.142;-110.310;2024-03-07T14:42:47;17.10;99.90
41722;DHT22;27407;24.142;-110.310;2024-03-07T14:45:31;17.20;99.90
41722;DHT22;27407;24.142;-110.310;2024-03-07T14:47:59;17.30;99.90
41722;DHT22;27407;24.142;-110.310;2024-03-07T14:50:29;17.40;99.90
41722;DHT22;27407;24.142;-110.310;2024-03-07T14:52:59;17.40;99.90
41722;DHT22;27407;24.142;-110.310;2024-03-07T14:55:26;17.30;99.90
41722;DHT22;27407;24.142;-110.310;2024-03-07T14:57:52;17.30;99.90
41722;DHT22;27407;24.142;-110.310;2024-03-07T15:00:19;17.40;99.90
41722;DHT22;27407;24.142;-110.310;2024-03-07T15:02:52;17.60;99.90
41722;DHT22;27407;24.142;-110.310;2024-03-07T15:05:26;17.70;99.90
41722;DHT22;27407;24.142;-110.310;2024-03-07T15:07:53;17.80;99.90
41722;DHT22;27407;24.142;-110.310;2024-03-07T15:10:26;18.00;99.90
41722;DHT22;27407;24.142;-110.310;2024-03-07T15:12:56;18.20;99.90
41722;DHT22;27407;24.142;-110.310;2024-03-07T15:15:23;18.30;99.90
41722;DHT22;27407;24.142;-110.310;2024-03-07T15:17:53;18.50;99.90
41722;DHT22;27407;24.142;-110.310;2024-03-07T15:20:20;18.70;99.90
41722;DHT22;27407;24.142;-110.310;2024-03-07T15:22:54;18.90;99.90
41722;DHT22;27407;24.142;-110.310;2024-03-07T15:25:22;19.20;99.90
41722;DHT22;27407;24.142;-110.310;2024-03-07T15:27:54;19.50;99.90
41722;DHT22;27407;24.142;-110.310;2024-03-07T15:30:23;19.70;99.90
41722;DHT22;27407;24.142;-110.310;2024-03-07T15:33:08;19.80;99.90
41722;DHT22;27407;24.142;-110.310;2024-03-07T15:35:36;20.00;99.90
41722;DHT22;27407;24.142;-110.310;2024-03-07T15:38:12;19.90;99.90
41722;DHT22;27407;24.142;-110.310;2024-03-07T15:40:40;19.80;99.90
41722;DHT22;27407;24.142;-110.310;2024-03-07T15:43:07;19.70;99.90
41722;DHT22;27407;24.142;-110.310;2024-03-07T15:45:37;19.80;99.90
41722;DHT22;27407;24.142;-110.310;2024-03-07T15:48:05;19.90;99.90